sensor_id;sensor_type;location;lat;lon;timestamp;pressure;altitude;pressure_sealevel;temperature;humidity
6020;BME280;3038;51.122;6.840;2022-10-18T00:02:14;102280.81;;;16.58;86.74
6020;BME280;3038;51.122;6.840;2022-10-18T00:04:39;102273.31;;;16.61;86.68
6020;BME280;3038;51.122;6.840;2022-10-18T00:07:05;102272.28;;;16.62;86.30
6020;BME280;3038;51.122;6.840;2022-10-18T00:09:30;102275.09;;;16.53;86.43
6020;BME280;3038;51.122;6.840;2022-10-18T00:11:56;102276.47;;;16.57;86.33
6020;BME280;3038;51.122;6.840;2022-10-18T00:14:21;102264.41;;;16.61;86.41
6020;BME280;3038;51.122;6.840;2022-10-18T00:16:47;102266.78;;;16.64;86.27
6020;BME280;3038;51.122;6.840;2022-10-18T00:36:10;102253.81;;;16.51;86.96
6020;BME280;3038;51.122;6.840;2022-10-18T00:38:55;102245.13;;;16.49;87.31
6020;BME280;3038;51.122;6.840;2022-10-18T00:41:26;102248.16;;;16.54;87.20
6020;BME280;3038;51.122;6.840;2022-10-18T00:43:56;102251.66;;;16.55;86.97
6020;BME280;3038;51.122;6.840;2022-10-18T00:46:23;102249.25;;;16.43;86.84
6020;BME280;3038;51.122;6.840;2022-10-18T00:48:50;102246.94;;;16.49;86.82
6020;BME280;3038;51.122;6.840;2022-10-18T00:51:19;102242.78;;;16.54;86.71
6020;BME280;3038;51.122;6.840;2022-10-18T00:53:45;102242.31;;;16.59;86.44
6020;BME280;3038;51.122;6.840;2022-10-18T00:56:11;102242.97;;;16.61;86.31
6020;BME280;3038;51.122;6.840;2022-10-18T00:58:37;102238.63;;;16.60;86.42
6020;BME280;3038;51.122;6.840;2022-10-18T01:01:03;102240.94;;;16.55;86.66
6020;BME280;3038;51.122;6.840;2022-10-18T01:03:28;102232.06;;;16.54;86.62
6020;BME280;3038;51.122;6.840;2022-10-18T01:05:54;102229.88;;;16.50;86.73
6020;BME280;3038;51.122;6.840;2022-10-18T01:08:44;102229.88;;;16.50;86.97
6020;BME280;3038;51.122;6.840;2022-10-18T01:11:46;102229.88;;;16.58;86.73
6020;BME280;3038;51.122;6.840;2022-10-18T01:14:40;102222.03;;;16.64;86.34
6020;BME280;3038;51.122;6.840;2022-10-18T01:17:20;102224.84;;;16.63;86.48
6020;BME280;3038;51.122;6.840;2022-10-18T01:22:33;102225.22;;;16.60;86.25
6020;BME280;3038;51.122;6.840;2022-10-18T01:47:53;102233.25;;;16.68;85.80
6020;BME280;3038;51.122;6.840;2022-10-18T01:50:37;102223.72;;;16.65;86.29
6020;BME280;3038;51.122;6.840;2022-10-18T01:53:02;102230.25;;;16.71;85.90
6020;BME280;3038;51.122;6.840;2022-10-18T01:58:07;102219.06;;;16.76;85.93
6020;BME280;3038;51.122;6.840;2022-10-18T02:00:39;102222.41;;;16.78;85.76
6020;BME280;3038;51.122;6.840;2022-10-18T02:03:16;102225.28;;;16.76;86.17
6020;BME280;3038;51.122;6.840;2022-10-18T02:10:45;102228.16;;;16.49;87.02
6020;BME280;3038;51.122;6.840;2022-10-18T02:13:15;102230.69;;;16.50;86.98
6020;BME280;3038;51.122;6.840;2022-10-18T02:15:45;102222.00;;;16.56;86.57
6020;BME280;3038;51.122;6.840;2022-10-18T02:18:22;102215.50;;;16.59;86.64
6020;BME280;3038;51.122;6.840;2022-10-18T02:20:50;102215.13;;;16.62;86.24
6020;BME280;3038;51.122;6.840;2022-10-18T02:23:19;102215.50;;;16.67;86.13
6020;BME280;3038;51.122;6.840;2022-10-18T02:25:45;102219.38;;;16.73;86.06
6020;BME280;3038;51.122;6.840;2022-10-18T02:45:53;102228.09;;;16.32;87.32
6020;BME280;3038;51.122;6.840;2022-10-18T02:48:18;102230.25;;;16.21;87.49
6020;BME280;3038;51.122;6.840;2022-10-18T02:50:43;102224.19;;;16.18;87.35
6020;BME280;3038;51.122;6.840;2022-10-18T02:53:09;102225.97;;;16.10;87.85
6020;BME280;3038;51.122;6.840;2022-10-18T02:55:34;102228.66;;;16.10;88.00
6020;BME280;3038;51.122;6.840;2022-10-18T02:57:59;102230.00;;;16.06;88.27
6020;BME280;3038;51.122;6.840;2022-10-18T03:00:25;102229.47;;;16.02;88.46
6020;BME280;3038;51.122;6.840;2022-10-18T03:02:50;102225.09;;;16.01;88.50
6020;BME280;3038;51.122;6.840;2022-10-18T03:05:17;102226.63;;;16.04;88.58
6020;BME280;3038;51.122;6.840;2022-10-18T03:07:43;102234.34;;;16.07;88.58
6020;BME280;3038;51.122;6.840;2022-10-18T03:10:08;102230.34;;;16.11;88.42
6020;BME280;3038;51.122;6.840;2022-10-18T03:12:34;102230.84;;;16.14;88.24
6020;BME280;3038;51.122;6.840;2022-10-18T03:14:59;102235.06;;;16.17;88.17
6020;BME280;3038;51.122;6.840;2022-10-18T03:17:24;102229.72;;;16.17;88.05
6020;BME280;3038;51.122;6.840;2022-10-18T03:19:50;102232.56;;;16.15;88.02
6020;BME280;3038;51.122;6.840;2022-10-18T03:22:15;102232.56;;;16.15;88.32
6020;BME280;3038;51.122;6.840;2022-10-18T03:24:40;102231.72;;;16.15;88.12
6020;BME280;3038;51.122;6.840;2022-10-18T03:27:06;102227.50;;;16.12;88.22
6020;BME280;3038;51.122;6.840;2022-10-18T03:29:31;102227.69;;;16.11;88.33
6020;BME280;3038;51.122;6.840;2022-10-18T03:31:56;102234.72;;;16.12;88.42
6020;BME280;3038;51.122;6.840;2022-10-18T03:34:22;102232.38;;;16.17;88.38
6020;BME280;3038;51.122;6.840;2022-10-18T03:36:47;102230.44;;;16.27;88.23
6020;BME280;3038;51.122;6.840;2022-10-18T03:39:12;102234.00;;;16.36;87.91
6020;BME280;3038;51.122;6.840;2022-10-18T03:41:38;102235.84;;;16.43;87.67
6020;BME280;3038;51.122;6.840;2022-10-18T03:44:03;102228.84;;;16.51;87.52
6020;BME280;3038;51.122;6.840;2022-10-18T03:46:29;102229.53;;;16.53;87.35
6020;BME280;3038;51.122;6.840;2022-10-18T03:48:54;102228.16;;;16.49;87.36
6020;BME280;3038;51.122;6.840;2022-10-18T03:51:19;102228.81;;;16.42;87.71
6020;BME280;3038;51.122;6.840;2022-10-18T03:53:45;102228.81;;;16.42;87.85
6020;BME280;3038;51.122;6.840;2022-10-18T03:56:10;102229.66;;;16.43;87.85
6020;BME280;3038;51.122;6.840;2022-10-18T03:58:35;102230.00;;;16.48;87.51
6020;BME280;3038;51.122;6.840;2022-10-18T04:01:01;102223.84;;;16.56;87.49
6020;BME280;3038;51.122;6.840;2022-10-18T04:03:26;102224.84;;;16.63;87.09
6020;BME280;3038;51.122;6.840;2022-10-18T04:05:51;102217.69;;;16.63;87.17
6020;BME280;3038;51.122;6.840;2022-10-18T04:08:17;102216.16;;;16.61;87.04
6020;BME280;3038;51.122;6.840;2022-10-18T04:10:44;102218.47;;;16.56;87.32
6020;BME280;3038;51.122;6.840;2022-10-18T04:13:10;102225.22;;;16.60;86.93
6020;BME280;3038;51.122;6.840;2022-10-18T04:15:35;102223.19;;;16.62;87.02
6020;BME280;3038;51.122;6.840;2022-10-18T04:18:01;102229.06;;;16.65;86.84
6020;BME280;3038;51.122;6.840;2022-10-18T04:20:27;102229.88;;;16.58;87.02
6020;BME280;3038;51.122;6.840;2022-10-18T04:22:52;102232.19;;;16.53;87.41
6020;BME280;3038;51.122;6.840;2022-10-18T04:25:20;102222.78;;;16.49;87.33
6020;BME280;3038;51.122;6.840;2022-10-18T04:27:45;102223.13;;;16.45;87.77
6020;BME280;3038;51.122;6.840;2022-10-18T04:30:11;102223.19;;;16.54;87.62
6020;BME280;3038;51.122;6.840;2022-10-18T04:32:36;102234.25;;;16.59;87.22
6020;BME280;3038;51.122;6.840;2022-10-18T04:35:03;102235.75;;;16.61;87.06
6020;BME280;3038;51.122;6.840;2022-10-18T04:37:28;102226.88;;;16.61;87.33
6020;BME280;3038;51.122;6.840;2022-10-18T04:39:53;102232.25;;;16.61;86.68
6020;BME280;3038;51.122;6.840;2022-10-18T04:42:20;102240.47;;;16.59;86.97
6020;BME280;3038;51.122;6.840;2022-10-18T04:44:45;102236.25;;;16.57;86.74
6020;BME280;3038;51.122;6.840;2022-10-18T04:47:11;102240.78;;;16.56;86.84
6020;BME280;3038;51.122;6.840;2022-10-18T04:49:36;102236.06;;;16.50;86.83
6020;BME280;3038;51.122;6.840;2022-10-18T04:52:02;102242.78;;;16.54;86.77
6020;BME280;3038;51.122;6.840;2022-10-18T04:54:27;102234.88;;;16.53;87.01
6020;BME280;3038;51.122;6.840;2022-10-18T04:56:53;102236.25;;;16.57;86.99
6020;BME280;3038;51.122;6.840;2022-10-18T04:59:18;102242.44;;;16.57;86.83
6020;BME280;3038;51.122;6.840;2022-10-18T05:01:44;102245.28;;;16.56;86.71
6020;BME280;3038;51.122;6.840;2022-10-18T05:04:09;102245.47;;;16.54;86.80
6020;BME280;3038;51.122;6.840;2022-10-18T05:06:34;102253.00;;;16.51;87.08
6020;BME280;3038;51.122;6.840;2022-10-18T05:09:00;102250.66;;;16.56;86.75
6020;BME280;3038;51.122;6.840;2022-10-18T05:11:25;102247.81;;;16.57;86.94
6020;BME280;3038;51.122;6.840;2022-10-18T05:13:51;102247.31;;;16.62;86.75
6020;BME280;3038;51.122;6.840;2022-10-18T05:16:17;102253.38;;;16.64;86.74
6020;BME280;3038;51.122;6.840;2022-10-18T05:18:42;102252.03;;;16.68;86.60
6020;BME280;3038;51.122;6.840;2022-10-18T05:21:08;102246.00;;;16.66;86.58
6020;BME280;3038;51.122;6.840;2022-10-18T05:23:33;102245.69;;;16.69;86.82
6020;BME280;3038;51.122;6.840;2022-10-18T05:26:03;102247.06;;;16.73;86.40
6020;BME280;3038;51.122;6.840;2022-10-18T05:28:30;102252.44;;;16.73;86.49
6020;BME280;3038;51.122;6.840;2022-10-18T05:31:00;102245.59;;;16.79;86.42
6020;BME280;3038;51.122;6.840;2022-10-18T05:33:25;102257.09;;;16.71;86.52
6020;BME280;3038;51.122;6.840;2022-10-18T05:35:51;102251.50;;;16.56;86.82
6020;BME280;3038;51.122;6.840;2022-10-18T05:38:16;102254.34;;;16.55;87.00
6020;BME280;3038;51.122;6.840;2022-10-18T05:40:41;102261.38;;;16.56;86.81
6020;BME280;3038;51.122;6.840;2022-10-18T05:43:07;102252.84;;;16.60;87.05
6020;BME280;3038;51.122;6.840;2022-10-18T05:45:32;102252.44;;;16.73;86.83
6020;BME280;3038;51.122;6.840;2022-10-18T05:47:57;102257.47;;;16.76;86.49
6020;BME280;3038;51.122;6.840;2022-10-18T05:50:23;102255.41;;;16.70;86.55
6020;BME280;3038;51.122;6.840;2022-10-18T05:52:48;102258.75;;;16.64;86.66
6020;BME280;3038;51.122;6.840;2022-10-18T05:55:13;102263.91;;;16.57;87.30
6020;BME280;3038;51.122;6.840;2022-10-18T05:57:39;102262.22;;;16.56;87.26
6020;BME280;3038;51.122;6.840;2022-10-18T06:00:05;102266.75;;;16.56;87.27
6020;BME280;3038;51.122;6.840;2022-10-18T06:02:30;102265.06;;;16.55;87.41
6020;BME280;3038;51.122;6.840;2022-10-18T06:04:55;102254.97;;;16.49;87.80
6020;BME280;3038;51.122;6.840;2022-10-18T06:07:21;102258.66;;;16.48;87.81
6020;BME280;3038;51.122;6.840;2022-10-18T06:09:46;102250.63;;;16.48;87.94
6020;BME280;3038;51.122;6.840;2022-10-18T06:12:11;102254.00;;;16.58;87.33
6020;BME280;3038;51.122;6.840;2022-10-18T06:14:37;102246.78;;;16.58;87.32
6020;BME280;3038;51.122;6.840;2022-10-18T06:17:03;102259.38;;;16.58;87.46
6020;BME280;3038;51.122;6.840;2022-10-18T06:19:28;102260.19;;;16.58;87.37
6020;BME280;3038;51.122;6.840;2022-10-18T06:21:53;102261.56;;;16.62;87.47
6020;BME280;3038;51.122;6.840;2022-10-18T06:24:19;102274.84;;;16.64;87.30
6020;BME280;3038;51.122;6.840;2022-10-18T06:26:46;102279.53;;;16.70;86.69
6020;BME280;3038;51.122;6.840;2022-10-18T06:29:11;102287.22;;;16.65;86.88
6020;BME280;3038;51.122;6.840;2022-10-18T06:31:37;102285.75;;;16.70;86.74
6020;BME280;3038;51.122;6.840;2022-10-18T06:34:02;102287.75;;;16.68;86.62
6020;BME280;3038;51.122;6.840;2022-10-18T06:36:29;102291.75;;;16.64;86.95
6020;BME280;3038;51.122;6.840;2022-10-18T06:38:54;102289.75;;;16.66;87.01
6020;BME280;3038;51.122;6.840;2022-10-18T06:41:21;102291.31;;;16.77;86.67
6020;BME280;3038;51.122;6.840;2022-10-18T06:43:48;102279.25;;;16.73;86.77
6020;BME280;3038;51.122;6.840;2022-10-18T06:46:13;102285.22;;;16.67;86.93
6020;BME280;3038;51.122;6.840;2022-10-18T06:48:39;102288.06;;;16.65;87.17
6020;BME280;3038;51.122;6.840;2022-10-18T06:51:06;102288.81;;;16.76;86.95
6020;BME280;3038;51.122;6.840;2022-10-18T06:53:33;102289.03;;;16.90;86.43
6020;BME280;3038;51.122;6.840;2022-10-18T06:56:01;102284.22;;;17.02;86.22
6020;BME280;3038;51.122;6.840;2022-10-18T06:58:27;102291.75;;;16.99;86.17
6020;BME280;3038;51.122;6.840;2022-10-18T07:00:53;102299.94;;;16.89;86.31
6020;BME280;3038;51.122;6.840;2022-10-18T07:03:18;102300.41;;;16.84;86.12
6020;BME280;3038;51.122;6.840;2022-10-18T07:05:46;102301.09;;;16.86;86.26
6020;BME280;3038;51.122;6.840;2022-10-18T07:08:11;102305.81;;;16.92;86.08
6020;BME280;3038;51.122;6.840;2022-10-18T07:10:36;102310.84;;;16.95;86.22
6020;BME280;3038;51.122;6.840;2022-10-18T07:13:02;102312.50;;;16.96;86.11
6020;BME280;3038;51.122;6.840;2022-10-18T07:15:27;102320.56;;;16.96;85.93
6020;BME280;3038;51.122;6.840;2022-10-18T07:17:53;102314.84;;;16.91;86.39
6020;BME280;3038;51.122;6.840;2022-10-18T07:20:18;102319.91;;;16.94;86.22
6020;BME280;3038;51.122;6.840;2022-10-18T07:22:44;102321.94;;;17.01;85.79
6020;BME280;3038;51.122;6.840;2022-10-18T07:25:09;102317.25;;;17.03;86.14
6020;BME280;3038;51.122;6.840;2022-10-18T07:27:40;102328.00;;;17.03;85.66
6020;BME280;3038;51.122;6.840;2022-10-18T07:30:08;102332.34;;;17.04;85.81
6020;BME280;3038;51.122;6.840;2022-10-18T07:32:35;102329.19;;;17.08;85.83
6020;BME280;3038;51.122;6.840;2022-10-18T07:35:00;102341.44;;;17.19;85.34
6020;BME280;3038;51.122;6.840;2022-10-18T07:37:27;102341.75;;;17.16;85.42
6020;BME280;3038;51.122;6.840;2022-10-18T07:39:52;102348.16;;;17.23;85.98
6020;BME280;3038;51.122;6.840;2022-10-18T07:42:18;102355.22;;;17.24;85.82
6020;BME280;3038;51.122;6.840;2022-10-18T07:44:43;102349.53;;;17.27;85.56
6020;BME280;3038;51.122;6.840;2022-10-18T07:47:08;102359.91;;;17.30;85.62
6020;BME280;3038;51.122;6.840;2022-10-18T07:49:34;102364.31;;;17.31;85.37
6020;BME280;3038;51.122;6.840;2022-10-18T07:51:59;102362.81;;;17.37;85.92
6020;BME280;3038;51.122;6.840;2022-10-18T07:54:24;102364.66;;;17.44;85.12
6020;BME280;3038;51.122;6.840;2022-10-18T07:56:50;102363.00;;;17.52;84.91
6020;BME280;3038;51.122;6.840;2022-10-18T07:59:15;102368.72;;;17.57;84.71
6020;BME280;3038;51.122;6.840;2022-10-18T08:01:40;102363.66;;;17.54;84.98
6020;BME280;3038;51.122;6.840;2022-10-18T08:04:06;102368.38;;;17.52;84.99
6020;BME280;3038;51.122;6.840;2022-10-18T08:06:31;102372.72;;;17.53;84.93
6020;BME280;3038;51.122;6.840;2022-10-18T08:08:56;102374.59;;;17.52;84.92
6020;BME280;3038;51.122;6.840;2022-10-18T08:11:23;102378.09;;;17.53;85.03
6020;BME280;3038;51.122;6.840;2022-10-18T08:13:50;102379.31;;;17.66;84.63
6020;BME280;3038;51.122;6.840;2022-10-18T08:16:24;102383.50;;;17.69;84.17
6020;BME280;3038;51.122;6.840;2022-10-18T08:18:50;102391.22;;;17.72;84.14
6020;BME280;3038;51.122;6.840;2022-10-18T08:21:16;102389.25;;;17.74;84.25
6020;BME280;3038;51.122;6.840;2022-10-18T08:23:43;102396.47;;;17.73;84.37
6020;BME280;3038;51.122;6.840;2022-10-18T08:26:16;102397.75;;;17.69;84.26
6020;BME280;3038;51.122;6.840;2022-10-18T08:28:43;102393.91;;;17.56;84.38
6020;BME280;3038;51.122;6.840;2022-10-18T08:31:12;102400.59;;;17.60;84.57
6020;BME280;3038;51.122;6.840;2022-10-18T08:33:38;102397.78;;;17.61;84.56
6020;BME280;3038;51.122;6.840;2022-10-18T08:36:06;102407.31;;;17.64;84.24
6020;BME280;3038;51.122;6.840;2022-10-18T08:38:33;102401.00;;;17.73;84.74
6020;BME280;3038;51.122;6.840;2022-10-18T08:44:19;102413.41;;;17.74;84.01
6020;BME280;3038;51.122;6.840;2022-10-18T08:46:49;102420.50;;;17.75;84.09
6020;BME280;3038;51.122;6.840;2022-10-18T08:49:39;102422.34;;;17.75;84.05
6020;BME280;3038;51.122;6.840;2022-10-18T08:55:37;102425.53;;;17.78;83.91
6020;BME280;3038;51.122;6.840;2022-10-18T08:58:16;102425.88;;;17.75;83.52
6020;BME280;3038;51.122;6.840;2022-10-18T09:00:50;102424.47;;;17.71;83.99
6020;BME280;3038;51.122;6.840;2022-10-18T09:06:25;102424.13;;;17.66;84.19
6020;BME280;3038;51.122;6.840;2022-10-18T09:09:17;102426.97;;;17.64;84.05
6020;BME280;3038;51.122;6.840;2022-10-18T09:12:02;102425.19;;;17.81;84.04
6020;BME280;3038;51.122;6.840;2022-10-18T09:14:52;102426.19;;;17.88;83.83
6020;BME280;3038;51.122;6.840;2022-10-18T09:20:26;102426.91;;;17.90;83.15
6020;BME280;3038;51.122;6.840;2022-10-18T09:23:04;102423.00;;;17.93;84.08
6020;BME280;3038;51.122;6.840;2022-10-18T09:25:35;102425.88;;;17.91;83.49
6020;BME280;3038;51.122;6.840;2022-10-18T09:31:00;102432.59;;;17.95;83.37
6020;BME280;3038;51.122;6.840;2022-10-18T09:33:40;102432.75;;;17.86;83.14
6020;BME280;3038;51.122;6.840;2022-10-18T09:36:10;102439.31;;;17.91;83.50
6020;BME280;3038;51.122;6.840;2022-10-18T09:39:02;102441.38;;;18.14;82.74
6020;BME280;3038;51.122;6.840;2022-10-18T09:41:51;102442.53;;;18.36;81.92
6020;BME280;3038;51.122;6.840;2022-10-18T09:44:26;102447.72;;;18.45;82.99
6020;BME280;3038;51.122;6.840;2022-10-18T09:47:02;102450.28;;;18.47;82.07
6020;BME280;3038;51.122;6.840;2022-10-18T09:49:51;102453.44;;;18.50;81.85
6020;BME280;3038;51.122;6.840;2022-10-18T09:52:24;102451.06;;;18.56;82.00
6020;BME280;3038;51.122;6.840;2022-10-18T09:54:57;102449.41;;;18.63;82.31
6020;BME280;3038;51.122;6.840;2022-10-18T09:57:26;102451.72;;;18.66;81.57
6020;BME280;3038;51.122;6.840;2022-10-18T09:59:56;102446.69;;;18.79;80.81
6020;BME280;3038;51.122;6.840;2022-10-18T10:02:23;102460.06;;;19.12;80.75
6020;BME280;3038;51.122;6.840;2022-10-18T10:04:49;102448.91;;;19.23;79.64
6020;BME280;3038;51.122;6.840;2022-10-18T10:07:26;102440.88;;;19.54;77.99
6020;BME280;3038;51.122;6.840;2022-10-18T10:10:05;102448.00;;;21.21;74.60
6020;BME280;3038;51.122;6.840;2022-10-18T10:12:34;102455.84;;;21.30;73.36
6020;BME280;3038;51.122;6.840;2022-10-18T10:17:37;102463.41;;;19.61;78.38
6020;BME280;3038;51.122;6.840;2022-10-18T10:22:41;102461.63;;;19.45;77.80
6020;BME280;3038;51.122;6.840;2022-10-18T10:25:30;102460.50;;;19.32;77.56
6020;BME280;3038;51.122;6.840;2022-10-18T10:28:02;102459.47;;;19.33;78.13
6020;BME280;3038;51.122;6.840;2022-10-18T10:30:36;102463.69;;;19.35;78.11
6020;BME280;3038;51.122;6.840;2022-10-18T10:33:02;102473.97;;;19.71;77.29
6020;BME280;3038;51.122;6.840;2022-10-18T10:35:36;102470.66;;;20.90;72.19
6020;BME280;3038;51.122;6.840;2022-10-18T10:38:02;102480.19;;;21.81;71.61
6020;BME280;3038;51.122;6.840;2022-10-18T10:40:29;102476.59;;;22.95;67.33
6020;BME280;3038;51.122;6.840;2022-10-18T10:43:01;102468.25;;;24.98;59.92
6020;BME280;3038;51.122;6.840;2022-10-18T10:45:30;102473.28;;;23.95;62.84
6020;BME280;3038;51.122;6.840;2022-10-18T10:48:03;102473.19;;;22.30;66.30
6020;BME280;3038;51.122;6.840;2022-10-18T10:50:29;102472.22;;;21.59;69.60
6020;BME280;3038;51.122;6.840;2022-10-18T10:52:55;102471.97;;;22.61;67.42
6020;BME280;3038;51.122;6.840;2022-10-18T10:55:26;102460.38;;;24.64;58.92
6020;BME280;3038;51.122;6.840;2022-10-18T10:57:54;102460.44;;;25.80;57.10
6020;BME280;3038;51.122;6.840;2022-10-18T11:00:43;102461.03;;;26.13;53.08
6020;BME280;3038;51.122;6.840;2022-10-18T11:03:19;102453.75;;;25.76;55.59
6020;BME280;3038;51.122;6.840;2022-10-18T11:05:47;102459.91;;;23.87;60.02
6020;BME280;3038;51.122;6.840;2022-10-18T11:08:22;102461.25;;;22.46;63.72
6020;BME280;3038;51.122;6.840;2022-10-18T11:10:58;102468.31;;;21.46;67.00
6020;BME280;3038;51.122;6.840;2022-10-18T11:13:48;102460.75;;;21.57;66.62
6020;BME280;3038;51.122;6.840;2022-10-18T11:16:31;102468.16;;;22.48;65.46
6020;BME280;3038;51.122;6.840;2022-10-18T11:18:58;102465.41;;;24.33;60.15
6020;BME280;3038;51.122;6.840;2022-10-18T11:21:28;102462.50;;;24.61;58.89
6020;BME280;3038;51.122;6.840;2022-10-18T11:23:56;102463.63;;;25.19;57.10
6020;BME280;3038;51.122;6.840;2022-10-18T11:26:47;102461.63;;;26.15;54.28
6020;BME280;3038;51.122;6.840;2022-10-18T11:37:38;102452.00;;;25.88;52.88
6020;BME280;3038;51.122;6.840;2022-10-18T11:43:22;102461.19;;;24.84;55.04
6020;BME280;3038;51.122;6.840;2022-10-18T11:49:43;102460.34;;;23.84;57.76
6020;BME280;3038;51.122;6.840;2022-10-18T11:54:33;102443.66;;;24.73;55.75
6020;BME280;3038;51.122;6.840;2022-10-18T12:04:51;102449.56;;;21.60;63.36
6020;BME280;3038;51.122;6.840;2022-10-18T12:07:19;102446.25;;;21.28;64.17
6020;BME280;3038;51.122;6.840;2022-10-18T12:09:48;102455.34;;;21.57;63.88
6020;BME280;3038;51.122;6.840;2022-10-18T12:12:35;102451.09;;;20.88;65.18
6020;BME280;3038;51.122;6.840;2022-10-18T12:15:17;102452.50;;;20.84;65.24
6020;BME280;3038;51.122;6.840;2022-10-18T12:17:46;102447.75;;;21.16;65.57
6020;BME280;3038;51.122;6.840;2022-10-18T12:20:45;102455.47;;;22.55;60.33
6020;BME280;3038;51.122;6.840;2022-10-18T12:25:59;102439.44;;;24.84;52.79
6020;BME280;3038;51.122;6.840;2022-10-18T12:31:32;102434.91;;;23.98;52.91
6020;BME280;3038;51.122;6.840;2022-10-18T12:37:04;102439.50;;;25.74;51.52
6020;BME280;3038;51.122;6.840;2022-10-18T12:39:40;102437.50;;;26.26;49.46
6020;BME280;3038;51.122;6.840;2022-10-18T12:42:20;102431.47;;;27.22;46.31
6020;BME280;3038;51.122;6.840;2022-10-18T12:44:47;102426.63;;;27.73;47.02
6020;BME280;3038;51.122;6.840;2022-10-18T12:47:21;102428.44;;;26.94;46.99
6020;BME280;3038;51.122;6.840;2022-10-18T12:49:55;102430.72;;;24.29;53.17
6020;BME280;3038;51.122;6.840;2022-10-18T12:52:23;102434.31;;;22.66;57.77
6020;BME280;3038;51.122;6.840;2022-10-18T13:29:35;102441.19;;;24.19;52.88
6020;BME280;3038;51.122;6.840;2022-10-18T13:34:59;102436.09;;;23.82;54.59
6020;BME280;3038;51.122;6.840;2022-10-18T13:37:25;102437.78;;;22.88;56.63
6020;BME280;3038;51.122;6.840;2022-10-18T13:40:20;102440.97;;;22.63;55.92
6020;BME280;3038;51.122;6.840;2022-10-18T13:42:46;102437.59;;;22.33;57.76
6020;BME280;3038;51.122;6.840;2022-10-18T13:45:42;102437.63;;;22.12;58.47
6020;BME280;3038;51.122;6.840;2022-10-18T13:54:02;102439.66;;;21.67;59.30
6020;BME280;3038;51.122;6.840;2022-10-18T14:05:19;102446.06;;;21.66;58.90
6020;BME280;3038;51.122;6.840;2022-10-18T14:07:49;102451.91;;;22.27;57.49
6020;BME280;3038;51.122;6.840;2022-10-18T14:10:22;102444.91;;;22.89;54.86
6020;BME280;3038;51.122;6.840;2022-10-18T14:12:56;102441.84;;;23.46;53.69
6020;BME280;3038;51.122;6.840;2022-10-18T14:15:25;102441.84;;;22.98;54.41
6020;BME280;3038;51.122;6.840;2022-10-18T14:17:56;102435.81;;;21.76;57.18
6020;BME280;3038;51.122;6.840;2022-10-18T14:20:34;102434.31;;;21.22;59.60
6020;BME280;3038;51.122;6.840;2022-10-18T14:23:03;102440.56;;;20.93;60.71
6020;BME280;3038;51.122;6.840;2022-10-18T14:25:32;102452.19;;;20.79;61.17
6020;BME280;3038;51.122;6.840;2022-10-18T14:28:14;102449.13;;;20.67;61.04
6020;BME280;3038;51.122;6.840;2022-10-18T14:30:54;102443.06;;;20.50;61.13
6020;BME280;3038;51.122;6.840;2022-10-18T14:33:45;102446.63;;;20.43;61.52
6020;BME280;3038;51.122;6.840;2022-10-18T14:38:55;102439.06;;;19.77;63.75
6020;BME280;3038;51.122;6.840;2022-10-18T14:41:27;102431.59;;;19.48;64.86
6020;BME280;3038;51.122;6.840;2022-10-18T14:44:11;102436.47;;;19.22;65.47
6020;BME280;3038;51.122;6.840;2022-10-18T14:49:11;102449.94;;;19.14;65.01
6020;BME280;3038;51.122;6.840;2022-10-18T14:51:40;102449.94;;;19.14;65.78
6020;BME280;3038;51.122;6.840;2022-10-18T14:54:13;102442.25;;;19.03;66.43
6020;BME280;3038;51.122;6.840;2022-10-18T14:56:40;102436.53;;;19.06;66.23
6020;BME280;3038;51.122;6.840;2022-10-18T14:59:19;102455.41;;;18.97;65.88
6020;BME280;3038;51.122;6.840;2022-10-18T15:01:54;102449.72;;;18.84;66.04
6020;BME280;3038;51.122;6.840;2022-10-18T15:04:21;102449.75;;;18.76;66.67
6020;BME280;3038;51.122;6.840;2022-10-18T15:06:48;102448.56;;;18.70;66.32
6020;BME280;3038;51.122;6.840;2022-10-18T15:09:15;102451.44;;;18.69;66.49
6020;BME280;3038;51.122;6.840;2022-10-18T15:11:44;102453.09;;;18.70;66.47
6020;BME280;3038;51.122;6.840;2022-10-18T15:14:16;102458.31;;;18.63;66.48
6020;BME280;3038;51.122;6.840;2022-10-18T15:16:42;102457.09;;;18.66;66.55
6020;BME280;3038;51.122;6.840;2022-10-18T15:22:09;102461.19;;;18.45;68.01
6020;BME280;3038;51.122;6.840;2022-10-18T15:24:37;102456.81;;;18.36;67.96
6020;BME280;3038;51.122;6.840;2022-10-18T15:27:17;102453.13;;;18.29;68.91
6020;BME280;3038;51.122;6.840;2022-10-18T15:29:44;102459.00;;;18.24;68.29
6020;BME280;3038;51.122;6.840;2022-10-18T15:32:20;102451.59;;;18.27;68.29
6020;BME280;3038;51.122;6.840;2022-10-18T15:34:46;102449.41;;;18.22;68.47
6020;BME280;3038;51.122;6.840;2022-10-18T15:37:31;102451.28;;;18.13;69.32
6020;BME280;3038;51.122;6.840;2022-10-18T15:40:31;102455.31;;;18.09;69.28
6020;BME280;3038;51.122;6.840;2022-10-18T15:43:03;102456.81;;;18.04;69.27
6020;BME280;3038;51.122;6.840;2022-10-18T15:45:34;102451.06;;;17.90;69.50
6020;BME280;3038;51.122;6.840;2022-10-18T15:55:49;102454.84;;;17.63;69.17
6020;BME280;3038;51.122;6.840;2022-10-18T15:58:30;102457.00;;;17.52;69.55
6020;BME280;3038;51.122;6.840;2022-10-18T16:01:01;102459.47;;;17.37;69.62
6020;BME280;3038;51.122;6.840;2022-10-18T16:03:34;102444.63;;;17.16;70.02
6020;BME280;3038;51.122;6.840;2022-10-18T16:06:08;102455.72;;;16.95;70.19
6020;BME280;3038;51.122;6.840;2022-10-18T16:08:50;102458.16;;;16.81;70.68
6020;BME280;3038;51.122;6.840;2022-10-18T16:11:21;102453.44;;;16.75;70.75
6020;BME280;3038;51.122;6.840;2022-10-18T16:13:47;102450.94;;;16.73;70.69
6020;BME280;3038;51.122;6.840;2022-10-18T16:16:24;102459.56;;;16.67;70.87
6020;BME280;3038;51.122;6.840;2022-10-18T16:18:51;102456.38;;;16.63;70.74
6020;BME280;3038;51.122;6.840;2022-10-18T16:21:26;102462.88;;;16.61;70.93
6020;BME280;3038;51.122;6.840;2022-10-18T16:23:52;102460.13;;;16.53;70.99
6020;BME280;3038;51.122;6.840;2022-10-18T16:26:19;102462.13;;;16.51;70.97
6020;BME280;3038;51.122;6.840;2022-10-18T16:28:45;102459.06;;;16.45;71.06
6020;BME280;3038;51.122;6.840;2022-10-18T16:31:17;102463.69;;;16.35;72.16
6020;BME280;3038;51.122;6.840;2022-10-18T16:33:44;102467.22;;;16.18;72.71
6020;BME280;3038;51.122;6.840;2022-10-18T16:36:13;102464.78;;;16.07;72.76